To NAV CANADA Home Page Login to a new session Search on AWWS site Feedback and Comments Disclaimer Vers la page française équivalente Tips FAQ What's new on the site To the Forecasts and Observations / NOTAM section To "File a Flight Plan" website Publications and other links Update of the User's profile FIC Telephone Numbers My Weather Data Folder Route Weather Data Regional Weather Data Local Weather Data To the Forecasts and Observations / NOTAM section
Request Generated 03/28/2017 at 02:16:46 UTC . Weather information available at that time is displayed.

METAR/TAF

EDMONTON INTL/AB    

METAR CYEG 280200Z 12006KT 15SM BKN120 BKN260 02/M01 A2990 RMK AC5CI2
SLP159=
SPECI CYEG 280119Z 11009KT 15SM SCT120 BKN260 02/M00 A2989 RMK AC3CI4
SLP155=
METAR CYEG 280100Z 10009KT 15SM FEW160 BKN260 03/M00 A2988 RMK AC1CI7
AC TR SLP151=
METAR CYEG 280000Z 11008KT 070V130 15SM BKN240 04/00 A2988 RMK CI5
SLP149=

TAF CYEG 272339Z 2800/2824 11008KT P6SM FEW012 SCT200
FM280600 15005KT P6SM SCT080 SCT200
FM281100 14005KT P6SM FEW200 PROB30 2811/2816 1/2SM FZFG
FM282100 12008KT P6SM SCT060 SCT200
RMK NXT FCST BY 280300Z=
Your time UTC time
Weather data provided by Environment Canada and NAV CANADA